Lungo, Sweden

10:01 AM CET on January 27, 2015 (GMT +0100)
Arsta, Ramvik, Sweden | Change Station
CLOSE
Current Station
Personal Weather Station
Location: Ramvik, VäSTERNORRLANDS LäN
Elevation: 420 ft
Nearby Weather Stations

Elev 420 ft 62.85 °N, 17.73 °E | Updated 11 seconds ago

Clear
Clear
25.9 °F
Feels Like 26 °F
N
0.0
Wind Variable Wind from SSE
Gusts 0.0 mph

Today
High -- | Low -- °F
--% Chance of Precip.
Yesterday
High -- | Low -- °F
Precip. -- in
8:31 AM 3:29 PM
First Quarter, 52% visible
Pressure 29.71 in
Visibility -9999.0 miles
Clouds
Windchill 26 °F
Dew Point 20 °F
Humidity 80%
Rainfall 0.00 in
Snow Depth Not available.
UV 0.0 out of 12
Pollen Not available.
Air Quality Not available.
Flu Activity Not available.
METAR ESNN 270850Z 01002KT CAVOK M12/M12 Q1006 R16/79//33

More Conditions Fewer Conditions

Pressure 29.71 in
Visibility -9999.0 miles
Clouds
Windchill 26 °F
Dew Point 20 °F
Humidity 80%
Rainfall 0.00 in
Snow Depth Not available.
UV 0.0 out of 12
Pollen Not available.
Air Quality Not available.
Flu Activity Not available.
METAR ESNN 270850Z 01002KT CAVOK M12/M12 Q1006 R16/79//33

More Conditions Fewer Conditions

10-Day Weather Forecast

Almanac

Astronomy

Jan. 27, 2015 Rise Set
Actual Time
Civil Twilight
Nautical Twilight
Astronomical Twilight
Moon
Length of Visible Light
Length of Day
Tomorrow will be .
, % of the Moon is Illuminated

Today's Extremes

Country Highs Country Lows

Community

WunderPhotos

Upload Photos

1,790,555 photos uploaded!

WunderBlogs® & News

Nearby

Air Quality

  Air Quality AQ Index Pollutant
Not available.

Snow Depth

Station Depth Elevation

Earthquake Activity

City Distance Mag. Time & Date
Minimum magnitude displayed is 2.5.

Coastal Water Temperatures

Place Temperature

Nearby Weather Stations